sensor_id;sensor_type;location;lat;lon;timestamp;P1;durP1;ratioP1;P2;durP2;ratioP2
58412;SDS011;44209;52.952;6.790;2024-01-07T00:02:10;20.40;;;14.53;;
58412;SDS011;44209;52.952;6.790;2024-01-07T00:04:35;22.97;;;14.93;;
58412;SDS011;44209;52.952;6.790;2024-01-07T00:07:02;19.17;;;14.53;;
58412;SDS011;44209;52.952;6.790;2024-01-07T00:09:29;21.43;;;15.57;;
58412;SDS011;44209;52.952;6.790;2024-01-07T00:11:54;20.80;;;14.70;;
58412;SDS011;44209;52.952;6.790;2024-01-07T00:14:20;20.77;;;15.43;;
58412;SDS011;44209;52.952;6.790;2024-01-07T00:16:45;22.60;;;15.17;;
58412;SDS011;44209;52.952;6.790;2024-01-07T00:19:11;21.67;;;15.20;;
58412;SDS011;44209;52.952;6.790;2024-01-07T00:21:37;22.97;;;15.80;;
58412;SDS011;44209;52.952;6.790;2024-01-07T00:24:02;23.77;;;15.43;;
58412;SDS011;44209;52.952;6.790;2024-01-07T00:26:28;19.53;;;15.17;;
58412;SDS011;44209;52.952;6.790;2024-01-07T00:28:54;20.83;;;14.90;;
58412;SDS011;44209;52.952;6.790;2024-01-07T00:31:20;21.73;;;15.33;;
58412;SDS011;44209;52.952;6.790;2024-01-07T00:33:45;22.73;;;14.90;;
58412;SDS011;44209;52.952;6.790;2024-01-07T00:36:11;22.33;;;15.87;;
58412;SDS011;44209;52.952;6.790;2024-01-07T00:38:37;21.00;;;15.50;;
58412;SDS011;44209;52.952;6.790;2024-01-07T00:41:02;20.93;;;15.50;;
58412;SDS011;44209;52.952;6.790;2024-01-07T00:43:28;23.27;;;15.63;;
58412;SDS011;44209;52.952;6.790;2024-01-07T00:45:54;20.33;;;15.63;;
58412;SDS011;44209;52.952;6.790;2024-01-07T00:48:19;25.37;;;16.47;;
58412;SDS011;44209;52.952;6.790;2024-01-07T00:50:45;20.57;;;14.60;;
58412;SDS011;44209;52.952;6.790;2024-01-07T00:53:11;22.60;;;14.47;;
58412;SDS011;44209;52.952;6.790;2024-01-07T00:55:36;21.73;;;14.50;;
58412;SDS011;44209;52.952;6.790;2024-01-07T00:58:02;19.30;;;14.27;;
58412;SDS011;44209;52.952;6.790;2024-01-07T01:00:28;17.87;;;14.17;;
58412;SDS011;44209;52.952;6.790;2024-01-07T01:02:54;19.43;;;13.73;;
58412;SDS011;44209;52.952;6.790;2024-01-07T01:05:20;18.97;;;13.37;;
58412;SDS011;44209;52.952;6.790;2024-01-07T01:07:46;20.67;;;14.17;;
58412;SDS011;44209;52.952;6.790;2024-01-07T01:10:12;17.90;;;13.30;;
58412;SDS011;44209;52.952;6.790;2024-01-07T01:12:39;20.10;;;13.93;;
58412;SDS011;44209;52.952;6.790;2024-01-07T01:15:05;19.90;;;14.10;;
58412;SDS011;44209;52.952;6.790;2024-01-07T01:17:31;21.23;;;14.60;;
58412;SDS011;44209;52.952;6.790;2024-01-07T01:19:57;21.03;;;13.77;;
58412;SDS011;44209;52.952;6.790;2024-01-07T01:22:22;20.77;;;14.60;;
58412;SDS011;44209;52.952;6.790;2024-01-07T01:24:48;17.30;;;13.60;;
58412;SDS011;44209;52.952;6.790;2024-01-07T01:27:14;18.17;;;14.03;;
58412;SDS011;44209;52.952;6.790;2024-01-07T01:29:40;23.67;;;14.90;;
58412;SDS011;44209;52.952;6.790;2024-01-07T01:32:06;19.77;;;14.37;;
58412;SDS011;44209;52.952;6.790;2024-01-07T01:34:32;21.13;;;14.03;;
58412;SDS011;44209;52.952;6.790;2024-01-07T01:36:58;18.97;;;14.10;;
58412;SDS011;44209;52.952;6.790;2024-01-07T01:39:23;21.43;;;14.57;;
58412;SDS011;44209;52.952;6.790;2024-01-07T01:41:49;20.83;;;14.63;;
58412;SDS011;44209;52.952;6.790;2024-01-07T01:44:15;19.67;;;13.83;;
58412;SDS011;44209;52.952;6.790;2024-01-07T01:46:40;19.93;;;13.43;;
58412;SDS011;44209;52.952;6.790;2024-01-07T01:49:06;18.20;;;13.47;;
58412;SDS011;44209;52.952;6.790;2024-01-07T01:51:33;20.13;;;13.10;;
58412;SDS011;44209;52.952;6.790;2024-01-07T01:53:59;21.83;;;14.80;;
58412;SDS011;44209;52.952;6.790;2024-01-07T01:56:26;17.50;;;13.27;;
58412;SDS011;44209;52.952;6.790;2024-01-07T01:58:53;18.80;;;12.60;;
58412;SDS011;44209;52.952;6.790;2024-01-07T02:01:19;17.13;;;13.00;;
58412;SDS011;44209;52.952;6.790;2024-01-07T02:03:45;17.27;;;13.70;;
58412;SDS011;44209;52.952;6.790;2024-01-07T02:06:11;16.00;;;12.80;;
58412;SDS011;44209;52.952;6.790;2024-01-07T02:08:38;18.93;;;12.47;;
58412;SDS011;44209;52.952;6.790;2024-01-07T02:11:14;17.27;;;12.80;;
58412;SDS011;44209;52.952;6.790;2024-01-07T02:13:43;19.90;;;13.60;;
58412;SDS011;44209;52.952;6.790;2024-01-07T02:16:09;17.63;;;12.67;;
58412;SDS011;44209;52.952;6.790;2024-01-07T02:18:35;17.73;;;13.00;;
58412;SDS011;44209;52.952;6.790;2024-01-07T02:21:00;16.70;;;11.63;;
58412;SDS011;44209;52.952;6.790;2024-01-07T02:23:26;18.13;;;12.40;;
58412;SDS011;44209;52.952;6.790;2024-01-07T02:25:52;15.43;;;11.93;;
58412;SDS011;44209;52.952;6.790;2024-01-07T02:28:17;15.50;;;11.70;;
58412;SDS011;44209;52.952;6.790;2024-01-07T02:30:43;14.77;;;10.77;;
58412;SDS011;44209;52.952;6.790;2024-01-07T02:33:08;15.27;;;10.90;;
58412;SDS011;44209;52.952;6.790;2024-01-07T02:35:34;17.90;;;11.73;;
58412;SDS011;44209;52.952;6.790;2024-01-07T02:38:00;17.03;;;11.23;;
58412;SDS011;44209;52.952;6.790;2024-01-07T02:40:26;17.60;;;11.97;;
58412;SDS011;44209;52.952;6.790;2024-01-07T02:42:51;15.03;;;11.13;;
58412;SDS011;44209;52.952;6.790;2024-01-07T02:45:17;15.13;;;11.33;;
58412;SDS011;44209;52.952;6.790;2024-01-07T02:47:43;15.17;;;11.17;;
58412;SDS011;44209;52.952;6.790;2024-01-07T02:50:08;15.40;;;11.30;;
58412;SDS011;44209;52.952;6.790;2024-01-07T02:52:34;15.63;;;10.50;;
58412;SDS011;44209;52.952;6.790;2024-01-07T02:55:00;14.07;;;10.63;;
58412;SDS011;44209;52.952;6.790;2024-01-07T02:57:26;14.93;;;10.27;;
58412;SDS011;44209;52.952;6.790;2024-01-07T02:59:52;16.07;;;9.87;;
58412;SDS011;44209;52.952;6.790;2024-01-07T03:02:18;14.50;;;10.27;;
58412;SDS011;44209;52.952;6.790;2024-01-07T03:04:43;13.50;;;9.50;;
58412;SDS011;44209;52.952;6.790;2024-01-07T03:07:09;11.63;;;9.37;;
58412;SDS011;44209;52.952;6.790;2024-01-07T03:09:35;14.73;;;9.83;;
58412;SDS011;44209;52.952;6.790;2024-01-07T03:12:00;13.60;;;9.77;;
58412;SDS011;44209;52.952;6.790;2024-01-07T03:14:26;11.70;;;9.20;;
58412;SDS011;44209;52.952;6.790;2024-01-07T03:16:52;14.83;;;9.47;;
58412;SDS011;44209;52.952;6.790;2024-01-07T03:19:18;12.47;;;8.80;;
58412;SDS011;44209;52.952;6.790;2024-01-07T03:21:43;12.03;;;8.97;;
58412;SDS011;44209;52.952;6.790;2024-01-07T03:24:10;12.97;;;9.17;;
58412;SDS011;44209;52.952;6.790;2024-01-07T03:26:36;12.43;;;8.73;;
58412;SDS011;44209;52.952;6.790;2024-01-07T03:29:01;14.70;;;9.43;;
58412;SDS011;44209;52.952;6.790;2024-01-07T03:31:27;14.60;;;9.40;;
58412;SDS011;44209;52.952;6.790;2024-01-07T03:33:53;12.50;;;9.50;;
58412;SDS011;44209;52.952;6.790;2024-01-07T03:36:19;15.10;;;9.67;;
58412;SDS011;44209;52.952;6.790;2024-01-07T03:38:45;12.77;;;9.27;;
58412;SDS011;44209;52.952;6.790;2024-01-07T03:41:17;11.30;;;8.77;;
58412;SDS011;44209;52.952;6.790;2024-01-07T03:43:44;11.50;;;8.67;;
58412;SDS011;44209;52.952;6.790;2024-01-07T03:46:13;12.40;;;8.77;;
58412;SDS011;44209;52.952;6.790;2024-01-07T03:48:40;12.73;;;8.27;;
58412;SDS011;44209;52.952;6.790;2024-01-07T03:51:09;11.20;;;7.93;;
58412;SDS011;44209;52.952;6.790;2024-01-07T03:53:35;9.17;;;6.57;;
58412;SDS011;44209;52.952;6.790;2024-01-07T03:56:00;11.37;;;6.90;;
58412;SDS011;44209;52.952;6.790;2024-01-07T03:58:26;8.83;;;6.47;;
58412;SDS011;44209;52.952;6.790;2024-01-07T04:00:52;9.03;;;6.37;;
58412;SDS011;44209;52.952;6.790;2024-01-07T04:03:17;11.67;;;7.03;;
58412;SDS011;44209;52.952;6.790;2024-01-07T04:05:43;8.17;;;6.50;;
58412;SDS011;44209;52.952;6.790;2024-01-07T04:08:10;10.70;;;7.60;;
58412;SDS011;44209;52.952;6.790;2024-01-07T04:10:37;11.40;;;7.20;;
58412;SDS011;44209;52.952;6.790;2024-01-07T04:13:03;9.70;;;7.50;;
58412;SDS011;44209;52.952;6.790;2024-01-07T04:15:29;10.27;;;7.67;;
58412;SDS011;44209;52.952;6.790;2024-01-07T04:17:55;10.20;;;7.20;;
58412;SDS011;44209;52.952;6.790;2024-01-07T04:20:21;11.27;;;7.40;;
58412;SDS011;44209;52.952;6.790;2024-01-07T04:22:47;9.40;;;6.80;;
58412;SDS011;44209;52.952;6.790;2024-01-07T04:25:13;11.43;;;6.97;;
58412;SDS011;44209;52.952;6.790;2024-01-07T04:27:38;9.07;;;6.47;;
58412;SDS011;44209;52.952;6.790;2024-01-07T04:30:04;9.17;;;6.67;;
58412;SDS011;44209;52.952;6.790;2024-01-07T04:32:31;7.97;;;6.60;;
58412;SDS011;44209;52.952;6.790;2024-01-07T04:34:57;8.87;;;6.80;;
58412;SDS011;44209;52.952;6.790;2024-01-07T04:37:23;9.67;;;6.00;;
58412;SDS011;44209;52.952;6.790;2024-01-07T04:39:49;9.83;;;6.40;;
58412;SDS011;44209;52.952;6.790;2024-01-07T04:42:15;9.07;;;6.17;;
58412;SDS011;44209;52.952;6.790;2024-01-07T04:44:44;8.77;;;5.90;;
58412;SDS011;44209;52.952;6.790;2024-01-07T04:47:26;8.47;;;6.23;;
58412;SDS011;44209;52.952;6.790;2024-01-07T04:49:56;7.37;;;5.87;;
58412;SDS011;44209;52.952;6.790;2024-01-07T04:52:23;8.63;;;6.00;;
58412;SDS011;44209;52.952;6.790;2024-01-07T04:54:54;8.30;;;5.67;;
58412;SDS011;44209;52.952;6.790;2024-01-07T04:57:21;7.20;;;5.35;;
58412;SDS011;44209;52.952;6.790;2024-01-07T04:59:47;8.17;;;5.67;;
58412;SDS011;44209;52.952;6.790;2024-01-07T05:02:14;7.67;;;5.40;;
58412;SDS011;44209;52.952;6.790;2024-01-07T05:04:40;9.90;;;5.33;;
58412;SDS011;44209;52.952;6.790;2024-01-07T05:07:06;5.73;;;4.67;;
58412;SDS011;44209;52.952;6.790;2024-01-07T05:09:32;7.43;;;5.13;;
58412;SDS011;44209;52.952;6.790;2024-01-07T05:11:58;10.03;;;6.17;;
58412;SDS011;44209;52.952;6.790;2024-01-07T05:14:24;8.60;;;5.50;;
58412;SDS011;44209;52.952;6.790;2024-01-07T05:16:50;6.63;;;5.30;;
58412;SDS011;44209;52.952;6.790;2024-01-07T05:19:16;7.67;;;5.40;;
58412;SDS011;44209;52.952;6.790;2024-01-07T05:21:41;7.83;;;5.60;;
58412;SDS011;44209;52.952;6.790;2024-01-07T05:24:07;6.37;;;4.90;;
58412;SDS011;44209;52.952;6.790;2024-01-07T05:26:42;7.43;;;5.17;;
58412;SDS011;44209;52.952;6.790;2024-01-07T05:29:09;7.13;;;4.97;;
58412;SDS011;44209;52.952;6.790;2024-01-07T05:31:36;7.13;;;4.93;;
58412;SDS011;44209;52.952;6.790;2024-01-07T05:34:02;5.70;;;4.50;;
58412;SDS011;44209;52.952;6.790;2024-01-07T05:36:28;5.70;;;4.30;;
58412;SDS011;44209;52.952;6.790;2024-01-07T05:38:54;7.03;;;4.50;;
58412;SDS011;44209;52.952;6.790;2024-01-07T05:41:19;5.07;;;3.97;;
58412;SDS011;44209;52.952;6.790;2024-01-07T05:43:45;6.43;;;4.33;;
58412;SDS011;44209;52.952;6.790;2024-01-07T05:46:11;6.03;;;4.30;;
58412;SDS011;44209;52.952;6.790;2024-01-07T05:48:49;5.93;;;4.07;;
58412;SDS011;44209;52.952;6.790;2024-01-07T05:51:15;6.00;;;4.07;;
58412;SDS011;44209;52.952;6.790;2024-01-07T05:53:41;7.20;;;3.87;;
58412;SDS011;44209;52.952;6.790;2024-01-07T05:56:08;4.37;;;3.67;;
58412;SDS011;44209;52.952;6.790;2024-01-07T05:58:34;6.33;;;3.70;;
58412;SDS011;44209;52.952;6.790;2024-01-07T06:01:00;5.73;;;3.57;;
58412;SDS011;44209;52.952;6.790;2024-01-07T06:03:25;5.40;;;3.90;;
58412;SDS011;44209;52.952;6.790;2024-01-07T06:05:51;5.23;;;3.50;;
58412;SDS011;44209;52.952;6.790;2024-01-07T06:08:17;5.77;;;3.50;;
58412;SDS011;44209;52.952;6.790;2024-01-07T06:10:43;4.20;;;3.37;;
58412;SDS011;44209;52.952;6.790;2024-01-07T06:13:09;7.43;;;3.40;;
58412;SDS011;44209;52.952;6.790;2024-01-07T06:15:34;4.60;;;3.10;;
58412;SDS011;44209;52.952;6.790;2024-01-07T06:18:00;5.43;;;3.60;;
58412;SDS011;44209;52.952;6.790;2024-01-07T06:20:26;4.60;;;2.93;;
58412;SDS011;44209;52.952;6.790;2024-01-07T06:22:53;3.37;;;2.90;;
58412;SDS011;44209;52.952;6.790;2024-01-07T06:25:19;4.17;;;3.40;;
58412;SDS011;44209;52.952;6.790;2024-01-07T06:27:45;6.17;;;3.13;;
58412;SDS011;44209;52.952;6.790;2024-01-07T06:30:11;5.33;;;3.00;;
58412;SDS011;44209;52.952;6.790;2024-01-07T06:32:37;5.33;;;2.90;;
58412;SDS011;44209;52.952;6.790;2024-01-07T06:35:03;5.43;;;2.73;;
58412;SDS011;44209;52.952;6.790;2024-01-07T06:37:29;3.90;;;3.00;;
58412;SDS011;44209;52.952;6.790;2024-01-07T06:39:55;4.40;;;3.20;;
58412;SDS011;44209;52.952;6.790;2024-01-07T06:42:23;4.23;;;3.20;;
58412;SDS011;44209;52.952;6.790;2024-01-07T06:44:49;4.83;;;3.13;;
58412;SDS011;44209;52.952;6.790;2024-01-07T06:47:15;3.83;;;2.93;;
58412;SDS011;44209;52.952;6.790;2024-01-07T06:49:40;4.60;;;3.00;;
58412;SDS011;44209;52.952;6.790;2024-01-07T06:52:06;6.13;;;3.20;;
58412;SDS011;44209;52.952;6.790;2024-01-07T06:54:32;5.23;;;3.20;;
58412;SDS011;44209;52.952;6.790;2024-01-07T06:56:58;3.37;;;2.70;;
58412;SDS011;44209;52.952;6.790;2024-01-07T06:59:23;3.37;;;3.07;;
58412;SDS011;44209;52.952;6.790;2024-01-07T07:01:49;3.77;;;3.30;;
58412;SDS011;44209;52.952;6.790;2024-01-07T07:04:15;3.47;;;2.93;;
58412;SDS011;44209;52.952;6.790;2024-01-07T07:06:40;3.80;;;3.17;;
58412;SDS011;44209;52.952;6.790;2024-01-07T07:09:06;4.37;;;2.70;;
58412;SDS011;44209;52.952;6.790;2024-01-07T07:11:32;5.23;;;3.00;;
58412;SDS011;44209;52.952;6.790;2024-01-07T07:13:57;5.10;;;2.97;;
58412;SDS011;44209;52.952;6.790;2024-01-07T07:16:23;5.03;;;3.03;;
58412;SDS011;44209;52.952;6.790;2024-01-07T07:18:50;3.10;;;2.80;;
58412;SDS011;44209;52.952;6.790;2024-01-07T07:21:15;6.00;;;3.40;;
58412;SDS011;44209;52.952;6.790;2024-01-07T07:23:41;3.10;;;2.80;;
58412;SDS011;44209;52.952;6.790;2024-01-07T07:26:07;4.17;;;2.93;;
58412;SDS011;44209;52.952;6.790;2024-01-07T07:28:33;3.43;;;3.00;;
58412;SDS011;44209;52.952;6.790;2024-01-07T07:30:59;5.13;;;3.10;;
58412;SDS011;44209;52.952;6.790;2024-01-07T07:33:24;4.13;;;2.77;;
58412;SDS011;44209;52.952;6.790;2024-01-07T07:35:50;4.67;;;3.13;;
58412;SDS011;44209;52.952;6.790;2024-01-07T07:38:16;3.33;;;2.93;;
58412;SDS011;44209;52.952;6.790;2024-01-07T07:40:41;3.87;;;3.10;;
58412;SDS011;44209;52.952;6.790;2024-01-07T07:43:07;4.50;;;2.77;;
58412;SDS011;44209;52.952;6.790;2024-01-07T07:45:33;3.20;;;2.70;;
58412;SDS011;44209;52.952;6.790;2024-01-07T07:47:59;2.80;;;2.50;;
58412;SDS011;44209;52.952;6.790;2024-01-07T07:50:25;3.93;;;2.83;;
58412;SDS011;44209;52.952;6.790;2024-01-07T07:52:50;4.27;;;2.50;;
58412;SDS011;44209;52.952;6.790;2024-01-07T07:55:16;4.30;;;2.70;;
58412;SDS011;44209;52.952;6.790;2024-01-07T07:57:43;3.87;;;2.80;;
58412;SDS011;44209;52.952;6.790;2024-01-07T08:00:09;3.90;;;3.10;;
58412;SDS011;44209;52.952;6.790;2024-01-07T08:02:37;3.97;;;2.83;;
58412;SDS011;44209;52.952;6.790;2024-01-07T08:05:04;5.60;;;3.07;;
58412;SDS011;44209;52.952;6.790;2024-01-07T08:07:31;3.93;;;2.80;;
58412;SDS011;44209;52.952;6.790;2024-01-07T08:09:57;6.13;;;2.83;;
58412;SDS011;44209;52.952;6.790;2024-01-07T08:12:23;4.23;;;2.70;;
58412;SDS011;44209;52.952;6.790;2024-01-07T08:14:48;5.40;;;2.90;;
58412;SDS011;44209;52.952;6.790;2024-01-07T08:17:14;3.70;;;2.60;;
58412;SDS011;44209;52.952;6.790;2024-01-07T08:19:40;4.93;;;2.80;;
58412;SDS011;44209;52.952;6.790;2024-01-07T08:22:06;6.50;;;2.90;;
58412;SDS011;44209;52.952;6.790;2024-01-07T08:24:31;3.87;;;2.80;;
58412;SDS011;44209;52.952;6.790;2024-01-07T08:26:57;3.83;;;2.97;;
58412;SDS011;44209;52.952;6.790;2024-01-07T08:29:23;3.17;;;2.53;;
58412;SDS011;44209;52.952;6.790;2024-01-07T08:31:48;5.90;;;2.70;;
58412;SDS011;44209;52.952;6.790;2024-01-07T08:34:14;4.30;;;2.80;;
58412;SDS011;44209;52.952;6.790;2024-01-07T08:36:40;3.13;;;2.23;;
58412;SDS011;44209;52.952;6.790;2024-01-07T08:39:06;3.10;;;2.30;;
58412;SDS011;44209;52.952;6.790;2024-01-07T08:41:33;3.33;;;2.77;;
58412;SDS011;44209;52.952;6.790;2024-01-07T08:43:59;3.03;;;2.60;;
58412;SDS011;44209;52.952;6.790;2024-01-07T08:46:24;3.97;;;2.87;;
58412;SDS011;44209;52.952;6.790;2024-01-07T08:48:50;3.10;;;2.80;;
58412;SDS011;44209;52.952;6.790;2024-01-07T08:51:15;6.17;;;2.80;;
58412;SDS011;44209;52.952;6.790;2024-01-07T08:53:41;4.07;;;2.60;;
58412;SDS011;44209;52.952;6.790;2024-01-07T08:56:07;3.63;;;2.47;;
58412;SDS011;44209;52.952;6.790;2024-01-07T08:58:33;4.63;;;2.60;;
58412;SDS011;44209;52.952;6.790;2024-01-07T09:00:59;3.13;;;2.57;;
58412;SDS011;44209;52.952;6.790;2024-01-07T09:03:25;2.43;;;2.23;;
58412;SDS011;44209;52.952;6.790;2024-01-07T09:05:51;2.97;;;2.53;;
58412;SDS011;44209;52.952;6.790;2024-01-07T09:08:17;3.03;;;2.70;;
58412;SDS011;44209;52.952;6.790;2024-01-07T09:10:42;2.57;;;2.37;;
58412;SDS011;44209;52.952;6.790;2024-01-07T09:13:08;4.10;;;2.47;;
58412;SDS011;44209;52.952;6.790;2024-01-07T09:15:34;4.53;;;2.37;;
58412;SDS011;44209;52.952;6.790;2024-01-07T09:17:59;2.57;;;2.00;;
58412;SDS011;44209;52.952;6.790;2024-01-07T09:20:25;2.73;;;2.40;;
58412;SDS011;44209;52.952;6.790;2024-01-07T09:22:51;2.70;;;2.27;;
58412;SDS011;44209;52.952;6.790;2024-01-07T09:25:16;5.33;;;2.77;;
58412;SDS011;44209;52.952;6.790;2024-01-07T09:27:42;2.60;;;2.23;;
58412;SDS011;44209;52.952;6.790;2024-01-07T09:30:09;4.67;;;3.37;;
58412;SDS011;44209;52.952;6.790;2024-01-07T09:32:40;4.10;;;2.60;;
58412;SDS011;44209;52.952;6.790;2024-01-07T09:35:07;3.80;;;2.47;;
58412;SDS011;44209;52.952;6.790;2024-01-07T09:37:33;2.77;;;2.33;;
58412;SDS011;44209;52.952;6.790;2024-01-07T09:40:00;3.70;;;2.80;;
58412;SDS011;44209;52.952;6.790;2024-01-07T09:42:26;3.03;;;2.50;;
58412;SDS011;44209;52.952;6.790;2024-01-07T09:44:52;5.77;;;3.23;;
58412;SDS011;44209;52.952;6.790;2024-01-07T09:47:18;3.50;;;2.30;;
58412;SDS011;44209;52.952;6.790;2024-01-07T09:49:45;2.73;;;2.53;;
58412;SDS011;44209;52.952;6.790;2024-01-07T09:52:11;3.93;;;3.13;;
58412;SDS011;44209;52.952;6.790;2024-01-07T09:54:38;5.33;;;2.87;;
58412;SDS011;44209;52.952;6.790;2024-01-07T09:57:05;2.83;;;2.30;;
58412;SDS011;44209;52.952;6.790;2024-01-07T09:59:32;3.87;;;2.67;;
58412;SDS011;44209;52.952;6.790;2024-01-07T10:01:58;3.97;;;2.60;;
58412;SDS011;44209;52.952;6.790;2024-01-07T10:04:25;3.83;;;2.93;;
58412;SDS011;44209;52.952;6.790;2024-01-07T10:06:52;3.60;;;2.80;;
58412;SDS011;44209;52.952;6.790;2024-01-07T10:09:19;4.00;;;2.60;;
58412;SDS011;44209;52.952;6.790;2024-01-07T10:11:47;3.27;;;2.53;;
58412;SDS011;44209;52.952;6.790;2024-01-07T10:14:12;4.43;;;2.50;;
58412;SDS011;44209;52.952;6.790;2024-01-07T10:16:38;3.37;;;2.70;;
58412;SDS011;44209;52.952;6.790;2024-01-07T10:19:04;3.80;;;2.80;;
58412;SDS011;44209;52.952;6.790;2024-01-07T10:21:30;5.23;;;3.10;;
58412;SDS011;44209;52.952;6.790;2024-01-07T10:24:08;5.63;;;2.80;;
58412;SDS011;44209;52.952;6.790;2024-01-07T10:26:37;4.37;;;2.80;;
58412;SDS011;44209;52.952;6.790;2024-01-07T10:29:04;4.83;;;2.70;;
58412;SDS011;44209;52.952;6.790;2024-01-07T10:31:29;5.37;;;3.77;;
58412;SDS011;44209;52.952;6.790;2024-01-07T10:33:56;5.93;;;3.80;;
58412;SDS011;44209;52.952;6.790;2024-01-07T10:36:22;4.07;;;3.10;;
58412;SDS011;44209;52.952;6.790;2024-01-07T10:38:49;4.70;;;2.70;;
58412;SDS011;44209;52.952;6.790;2024-01-07T10:41:18;4.03;;;2.73;;
58412;SDS011;44209;52.952;6.790;2024-01-07T10:43:47;4.00;;;2.87;;
58412;SDS011;44209;52.952;6.790;2024-01-07T10:46:14;3.43;;;2.70;;
58412;SDS011;44209;52.952;6.790;2024-01-07T10:48:43;3.30;;;2.77;;
58412;SDS011;44209;52.952;6.790;2024-01-07T10:51:15;2.97;;;2.50;;
58412;SDS011;44209;52.952;6.790;2024-01-07T10:53:43;3.77;;;2.30;;
58412;SDS011;44209;52.952;6.790;2024-01-07T10:56:16;3.17;;;2.73;;
58412;SDS011;44209;52.952;6.790;2024-01-07T10:58:47;2.67;;;2.30;;
58412;SDS011;44209;52.952;6.790;2024-01-07T11:01:14;3.93;;;2.57;;
58412;SDS011;44209;52.952;6.790;2024-01-07T11:08:58;3.20;;;2.43;;
58412;SDS011;44209;52.952;6.790;2024-01-07T11:11:46;3.77;;;2.60;;
58412;SDS011;44209;52.952;6.790;2024-01-07T11:16:57;3.63;;;2.27;;
58412;SDS011;44209;52.952;6.790;2024-01-07T11:19:23;4.93;;;2.70;;
58412;SDS011;44209;52.952;6.790;2024-01-07T11:21:48;3.50;;;2.77;;
58412;SDS011;44209;52.952;6.790;2024-01-07T11:27:03;3.03;;;2.70;;
58412;SDS011;44209;52.952;6.790;2024-01-07T11:29:31;3.83;;;2.50;;
58412;SDS011;44209;52.952;6.790;2024-01-07T11:31:57;5.33;;;2.90;;
58412;SDS011;44209;52.952;6.790;2024-01-07T11:34:42;4.50;;;2.70;;
58412;SDS011;44209;52.952;6.790;2024-01-07T11:37:18;3.57;;;2.67;;
58412;SDS011;44209;52.952;6.790;2024-01-07T11:39:45;3.90;;;2.90;;
58412;SDS011;44209;52.952;6.790;2024-01-07T11:42:12;4.27;;;3.17;;
58412;SDS011;44209;52.952;6.790;2024-01-07T11:44:38;5.13;;;2.90;;
58412;SDS011;44209;52.952;6.790;2024-01-07T11:47:14;5.73;;;3.10;;
58412;SDS011;44209;52.952;6.790;2024-01-07T11:49:44;4.60;;;3.37;;
58412;SDS011;44209;52.952;6.790;2024-01-07T11:52:10;4.33;;;3.17;;
58412;SDS011;44209;52.952;6.790;2024-01-07T11:54:37;4.83;;;3.70;;
58412;SDS011;44209;52.952;6.790;2024-01-07T11:57:09;5.80;;;3.20;;
58412;SDS011;44209;52.952;6.790;2024-01-07T11:59:35;4.23;;;3.27;;
58412;SDS011;44209;52.952;6.790;2024-01-07T12:02:01;6.07;;;3.67;;
58412;SDS011;44209;52.952;6.790;2024-01-07T12:04:32;5.23;;;3.40;;
58412;SDS011;44209;52.952;6.790;2024-01-07T12:06:59;4.60;;;3.50;;
58412;SDS011;44209;52.952;6.790;2024-01-07T12:09:26;5.83;;;3.70;;
58412;SDS011;44209;52.952;6.790;2024-01-07T12:11:52;11.37;;;7.23;;
58412;SDS011;44209;52.952;6.790;2024-01-07T12:14:18;5.60;;;4.73;;
58412;SDS011;44209;52.952;6.790;2024-01-07T12:16:44;27.87;;;12.90;;
58412;SDS011;44209;52.952;6.790;2024-01-07T12:19:10;7.27;;;5.07;;
58412;SDS011;44209;52.952;6.790;2024-01-07T12:21:37;8.90;;;4.93;;
58412;SDS011;44209;52.952;6.790;2024-01-07T12:24:03;9.07;;;5.77;;
58412;SDS011;44209;52.952;6.790;2024-01-07T12:26:29;25.07;;;11.83;;
58412;SDS011;44209;52.952;6.790;2024-01-07T12:28:57;11.07;;;5.77;;
58412;SDS011;44209;52.952;6.790;2024-01-07T12:31:32;19.60;;;9.37;;
58412;SDS011;44209;52.952;6.790;2024-01-07T12:33:58;6.43;;;4.30;;
58412;SDS011;44209;52.952;6.790;2024-01-07T12:36:25;7.63;;;4.97;;
58412;SDS011;44209;52.952;6.790;2024-01-07T12:38:51;9.03;;;5.83;;
58412;SDS011;44209;52.952;6.790;2024-01-07T12:41:19;11.17;;;6.20;;
58412;SDS011;44209;52.952;6.790;2024-01-07T12:43:46;8.67;;;6.27;;
58412;SDS011;44209;52.952;6.790;2024-01-07T12:46:11;8.93;;;5.43;;
58412;SDS011;44209;52.952;6.790;2024-01-07T12:48:37;12.03;;;5.60;;
58412;SDS011;44209;52.952;6.790;2024-01-07T12:51:03;8.80;;;5.70;;
58412;SDS011;44209;52.952;6.790;2024-01-07T12:53:29;7.97;;;5.47;;
58412;SDS011;44209;52.952;6.790;2024-01-07T12:55:55;9.60;;;5.30;;
58412;SDS011;44209;52.952;6.790;2024-01-07T12:58:20;9.00;;;6.07;;
58412;SDS011;44209;52.952;6.790;2024-01-07T13:00:46;7.90;;;5.80;;
58412;SDS011;44209;52.952;6.790;2024-01-07T13:03:12;30.90;;;11.70;;
58412;SDS011;44209;52.952;6.790;2024-01-07T13:05:45;39.07;;;12.97;;
58412;SDS011;44209;52.952;6.790;2024-01-07T13:08:14;29.27;;;11.20;;
58412;SDS011;44209;52.952;6.790;2024-01-07T13:10:41;28.43;;;11.93;;
58412;SDS011;44209;52.952;6.790;2024-01-07T13:13:06;27.60;;;9.87;;
58412;SDS011;44209;52.952;6.790;2024-01-07T13:15:34;16.53;;;7.53;;
58412;SDS011;44209;52.952;6.790;2024-01-07T13:18:00;77.80;;;22.10;;
58412;SDS011;44209;52.952;6.790;2024-01-07T13:20:27;46.97;;;15.67;;
58412;SDS011;44209;52.952;6.790;2024-01-07T13:22:53;19.53;;;8.73;;
58412;SDS011;44209;52.952;6.790;2024-01-07T13:25:19;15.03;;;8.27;;
58412;SDS011;44209;52.952;6.790;2024-01-07T13:27:44;24.90;;;10.70;;
58412;SDS011;44209;52.952;6.790;2024-01-07T13:30:10;39.20;;;14.70;;
58412;SDS011;44209;52.952;6.790;2024-01-07T13:32:36;14.83;;;7.70;;
58412;SDS011;44209;52.952;6.790;2024-01-07T13:35:02;19.23;;;10.33;;
58412;SDS011;44209;52.952;6.790;2024-01-07T13:37:29;10.17;;;6.70;;
58412;SDS011;44209;52.952;6.790;2024-01-07T13:39:56;9.60;;;6.30;;
58412;SDS011;44209;52.952;6.790;2024-01-07T13:42:22;8.10;;;5.97;;
58412;SDS011;44209;52.952;6.790;2024-01-07T13:44:47;26.87;;;12.47;;
58412;SDS011;44209;52.952;6.790;2024-01-07T13:47:13;13.40;;;7.57;;
58412;SDS011;44209;52.952;6.790;2024-01-07T13:49:40;27.93;;;13.50;;
58412;SDS011;44209;52.952;6.790;2024-01-07T13:52:06;11.03;;;6.20;;
58412;SDS011;44209;52.952;6.790;2024-01-07T13:54:32;9.93;;;6.50;;
58412;SDS011;44209;52.952;6.790;2024-01-07T13:56:57;11.67;;;8.30;;
58412;SDS011;44209;52.952;6.790;2024-01-07T13:59:24;9.67;;;5.93;;
58412;SDS011;44209;52.952;6.790;2024-01-07T14:01:51;11.50;;;7.80;;
58412;SDS011;44209;52.952;6.790;2024-01-07T14:04:17;10.03;;;6.30;;
58412;SDS011;44209;52.952;6.790;2024-01-07T14:06:43;10.40;;;5.93;;
58412;SDS011;44209;52.952;6.790;2024-01-07T14:09:09;9.30;;;6.20;;
58412;SDS011;44209;52.952;6.790;2024-01-07T14:11:35;10.37;;;5.80;;
58412;SDS011;44209;52.952;6.790;2024-01-07T14:14:01;40.43;;;17.27;;
58412;SDS011;44209;52.952;6.790;2024-01-07T14:16:27;37.77;;;14.10;;
58412;SDS011;44209;52.952;6.790;2024-01-07T14:18:53;59.37;;;20.80;;
58412;SDS011;44209;52.952;6.790;2024-01-07T14:21:19;55.23;;;21.73;;
58412;SDS011;44209;52.952;6.790;2024-01-07T14:23:45;66.77;;;29.30;;
58412;SDS011;44209;52.952;6.790;2024-01-07T14:26:11;46.50;;;21.47;;
58412;SDS011;44209;52.952;6.790;2024-01-07T14:28:36;21.90;;;12.33;;
58412;SDS011;44209;52.952;6.790;2024-01-07T14:31:02;33.13;;;13.87;;
58412;SDS011;44209;52.952;6.790;2024-01-07T14:33:28;52.83;;;21.07;;
58412;SDS011;44209;52.952;6.790;2024-01-07T14:35:54;36.73;;;14.37;;
58412;SDS011;44209;52.952;6.790;2024-01-07T14:38:20;15.03;;;8.07;;
58412;SDS011;44209;52.952;6.790;2024-01-07T14:40:46;61.47;;;25.03;;
58412;SDS011;44209;52.952;6.790;2024-01-07T14:43:13;20.73;;;10.27;;
58412;SDS011;44209;52.952;6.790;2024-01-07T14:45:39;29.17;;;13.70;;